createdAt,value
2019-03-20T00:01:27.247Z,1.80
2019-03-20T00:03:57.908Z,1.80
2019-03-20T00:06:28.479Z,2.10
2019-03-20T00:09:00.496Z,1.80
2019-03-20T00:11:31.722Z,2.05
2019-03-20T00:14:02.940Z,2.30
2019-03-20T00:16:33.651Z,2.00
2019-03-20T00:19:04.747Z,2.50
2019-03-20T00:21:35.842Z,2.00
2019-03-20T00:24:07.295Z,2.00
2019-03-20T00:26:42.045Z,2.00
2019-03-20T00:29:14.681Z,2.12
2019-03-20T00:31:45.159Z,2.15
2019-03-20T00:34:17.401Z,1.90
2019-03-20T00:36:48.010Z,1.95
2019-03-20T00:39:18.847Z,1.77
2019-03-20T00:41:49.712Z,2.35
2019-03-20T00:44:20.126Z,2.00
2019-03-20T00:46:50.688Z,2.00
2019-03-20T00:49:21.377Z,2.00
2019-03-20T00:51:51.808Z,2.15
2019-03-20T00:54:22.549Z,2.42
2019-03-20T00:56:53.392Z,2.08
2019-03-20T00:59:24.017Z,1.92
2019-03-20T01:01:54.745Z,2.50
2019-03-20T01:04:25.606Z,1.82
2019-03-20T01:06:56.125Z,1.72
2019-03-20T01:09:26.794Z,2.00
2019-03-20T01:11:57.452Z,2.15
2019-03-20T01:14:28.117Z,1.90
2019-03-20T01:16:59.116Z,2.00
2019-03-20T01:19:30.102Z,2.22
2019-03-20T01:22:01.165Z,2.00
2019-03-20T01:24:31.817Z,1.90
2019-03-20T01:27:02.252Z,1.65
2019-03-20T01:29:32.820Z,1.90
2019-03-20T01:32:03.577Z,2.00
2019-03-20T01:34:34.211Z,1.80
2019-03-20T01:37:04.872Z,1.77
2019-03-20T01:39:35.671Z,1.98
2019-03-20T01:42:06.625Z,1.70
2019-03-20T01:44:37.253Z,1.80
2019-03-20T01:47:08.072Z,1.80
2019-03-20T01:49:38.586Z,2.10
2019-03-20T01:52:09.542Z,2.10
2019-03-20T01:54:40.166Z,1.75
2019-03-20T01:57:10.722Z,1.87
2019-03-20T01:59:41.456Z,1.98
2019-03-20T02:02:12.171Z,1.90
2019-03-20T02:04:42.559Z,1.75
2019-03-20T02:07:13.245Z,1.92
2019-03-20T02:09:44.060Z,1.98
2019-03-20T02:12:14.692Z,2.05
2019-03-20T02:14:45.250Z,1.90
2019-03-20T02:17:15.880Z,1.70
2019-03-20T02:19:46.660Z,2.15
2019-03-20T02:22:17.340Z,1.70
2019-03-20T02:24:48.061Z,1.65
2019-03-20T02:27:18.689Z,1.50
2019-03-20T02:29:49.460Z,1.92
2019-03-20T02:32:20.180Z,2.22
2019-03-20T02:34:50.921Z,1.85
2019-03-20T02:37:21.338Z,1.80
2019-03-20T02:39:52.084Z,1.65
2019-03-20T02:42:22.649Z,1.90
2019-03-20T02:44:53.246Z,1.87
2019-03-20T02:47:23.833Z,2.02
2019-03-20T02:49:54.631Z,1.70
2019-03-20T02:52:25.314Z,1.75
2019-03-20T02:54:56.021Z,1.72
2019-03-20T02:57:26.539Z,1.60
2019-03-20T02:59:57.277Z,1.67
2019-03-20T03:02:27.887Z,1.90
2019-03-20T03:04:58.844Z,1.67
2019-03-20T03:07:29.434Z,1.60
2019-03-20T03:09:59.982Z,1.50
2019-03-20T03:12:30.621Z,1.65
2019-03-20T03:15:01.125Z,1.70
2019-03-20T03:17:31.910Z,1.67
2019-03-20T03:20:03.281Z,1.62
2019-03-20T03:22:33.971Z,1.75
2019-03-20T03:25:04.870Z,1.65
2019-03-20T03:27:35.437Z,1.60
2019-03-20T03:30:06.187Z,1.60
2019-03-20T03:32:36.725Z,1.65
2019-03-20T03:35:07.448Z,2.00
2019-03-20T03:37:37.928Z,1.67
2019-03-20T03:40:09.414Z,1.70
2019-03-20T03:42:40.145Z,1.62
2019-03-20T03:45:12.125Z,1.72
2019-03-20T03:47:42.740Z,1.60
2019-03-20T03:50:13.503Z,1.60
2019-03-20T03:52:44.403Z,1.52
2019-03-20T03:55:15.351Z,1.55
2019-03-20T03:57:46.285Z,1.30
2019-03-20T04:00:16.848Z,1.60
2019-03-20T04:02:47.452Z,1.55
2019-03-20T04:05:18.025Z,1.57
2019-03-20T04:07:48.831Z,1.62
2019-03-20T04:10:19.370Z,1.72
2019-03-20T04:12:50.069Z,1.60
2019-03-20T04:15:20.585Z,1.70
2019-03-20T04:17:51.286Z,1.50
2019-03-20T04:20:22.159Z,1.47
2019-03-20T04:22:53.429Z,1.60
2019-03-20T04:25:24.025Z,1.45
2019-03-20T04:27:58.599Z,1.32
2019-03-20T04:30:29.433Z,1.40
2019-03-20T04:33:00.077Z,1.70
2019-03-20T04:35:30.660Z,1.70
2019-03-20T04:38:01.420Z,1.40
2019-03-20T04:40:32.040Z,1.20
2019-03-20T04:43:02.570Z,1.30
2019-03-20T04:45:33.380Z,1.40
2019-03-20T04:48:04.051Z,1.50
2019-03-20T04:50:34.777Z,1.40
2019-03-20T04:53:05.404Z,1.55
2019-03-20T04:55:36.285Z,1.40
2019-03-20T04:58:06.981Z,1.30
2019-03-20T05:00:37.845Z,1.90
2019-03-20T05:03:08.664Z,1.60
2019-03-20T05:05:39.320Z,1.72
2019-03-20T05:08:09.959Z,1.35
2019-03-20T05:10:40.594Z,1.30
2019-03-20T05:13:11.321Z,1.35
2019-03-20T05:15:42.192Z,1.30
2019-03-20T05:18:12.859Z,1.20
2019-03-20T05:20:43.436Z,1.62
2019-03-20T05:23:14.125Z,1.60
2019-03-20T05:25:44.622Z,1.40
2019-03-20T05:28:15.281Z,1.30
2019-03-20T05:30:45.718Z,1.35
2019-03-20T05:33:16.390Z,1.75
2019-03-20T05:35:47.070Z,1.35
2019-03-20T05:38:17.935Z,1.30
2019-03-20T05:40:48.538Z,1.40
2019-03-20T05:43:19.242Z,1.37
2019-03-20T05:45:49.791Z,1.32
2019-03-20T05:48:20.467Z,1.65
2019-03-20T05:50:51.173Z,1.37
2019-03-20T05:53:21.668Z,1.50
2019-03-20T05:55:52.273Z,2.12
2019-03-20T05:58:23.142Z,1.90
2019-03-20T06:00:53.783Z,1.62
2019-03-20T06:03:24.548Z,1.72
2019-03-20T06:05:55.296Z,1.72
2019-03-20T06:08:26.231Z,1.30
2019-03-20T06:10:56.995Z,1.82
2019-03-20T06:13:27.798Z,2.60
2019-03-20T06:15:58.561Z,4.80
2019-03-20T06:18:29.453Z,3.22
2019-03-20T06:21:00.088Z,2.87
2019-03-20T06:23:30.842Z,3.35
2019-03-20T06:26:01.682Z,2.90
2019-03-20T06:28:32.452Z,2.80
2019-03-20T06:31:03.066Z,2.77
2019-03-20T06:33:33.801Z,2.65
2019-03-20T06:36:04.595Z,2.58
2019-03-20T06:38:35.350Z,2.52
2019-03-20T06:41:05.958Z,3.02
2019-03-20T06:43:36.925Z,2.55
2019-03-20T06:46:08.288Z,2.60
2019-03-20T06:48:39.328Z,3.12
2019-03-20T06:51:09.974Z,3.20
2019-03-20T06:53:40.592Z,3.80
2019-03-20T06:56:11.386Z,3.52
2019-03-20T06:58:42.374Z,3.10
2019-03-20T07:01:29.215Z,3.55
2019-03-20T07:04:31.373Z,2.72
2019-03-20T07:07:43.654Z,3.08
2019-03-20T07:10:52.066Z,3.37
2019-03-20T07:13:22.800Z,2.95
2019-03-20T07:15:53.547Z,3.15
2019-03-20T07:18:24.209Z,3.10
2019-03-20T07:20:54.944Z,4.17
2019-03-20T07:23:25.431Z,3.87
2019-03-20T07:25:56.407Z,4.28
2019-03-20T07:28:27.024Z,4.33
2019-03-20T07:30:57.495Z,4.45
2019-03-20T07:33:28.351Z,4.35
2019-03-20T07:35:58.892Z,4.10
2019-03-20T07:38:29.534Z,3.60
2019-03-20T07:41:00.319Z,4.00
2019-03-20T07:43:30.828Z,3.05
2019-03-20T07:46:01.695Z,3.10
2019-03-20T07:48:32.396Z,3.30
2019-03-20T07:51:03.185Z,3.12
2019-03-20T07:53:33.852Z,3.00
2019-03-20T07:56:04.765Z,2.72
2019-03-20T07:58:35.491Z,2.47
2019-03-20T08:01:05.897Z,3.10
2019-03-20T08:03:36.337Z,2.67
2019-03-20T08:06:07.149Z,3.08
2019-03-20T08:08:37.693Z,2.90
2019-03-20T08:11:08.479Z,3.10
2019-03-20T08:13:39.126Z,2.72
2019-03-20T08:16:09.858Z,2.83
2019-03-20T08:18:40.341Z,2.75
2019-03-20T08:21:10.873Z,2.90
2019-03-20T08:23:41.269Z,2.85
2019-03-20T08:26:11.683Z,2.72
2019-03-20T08:28:42.075Z,2.37
2019-03-20T08:31:12.468Z,2.72
2019-03-20T08:33:43.214Z,2.50
2019-03-20T08:36:13.606Z,2.33
2019-03-20T08:38:44.190Z,2.12
2019-03-20T08:41:14.805Z,2.00
2019-03-20T08:43:45.740Z,2.35
2019-03-20T08:46:16.728Z,1.60
2019-03-20T08:48:48.366Z,1.92
2019-03-20T08:51:19.348Z,2.20
2019-03-20T08:53:50.006Z,2.02
2019-03-20T08:56:20.525Z,1.60
2019-03-20T08:58:51.230Z,1.90
2019-03-20T09:01:28.367Z,1.82
2019-03-20T09:03:54.078Z,1.82
2019-03-20T09:06:24.673Z,1.65
2019-03-20T09:08:55.502Z,1.77
2019-03-20T09:11:26.273Z,1.95
2019-03-20T09:13:56.743Z,2.00
2019-03-20T09:16:27.530Z,2.00
2019-03-20T09:18:58.307Z,2.00
2019-03-20T09:21:29.032Z,1.98
2019-03-20T09:23:59.616Z,1.80
2019-03-20T09:26:30.401Z,1.65
2019-03-20T09:29:00.780Z,1.90
2019-03-20T09:31:31.263Z,1.40
2019-03-20T09:34:01.960Z,1.60
2019-03-20T09:36:42.795Z,1.80
2019-03-20T09:39:06.644Z,1.90
2019-03-20T09:41:37.374Z,1.50
2019-03-20T09:44:07.974Z,1.55
2019-03-20T09:46:38.629Z,1.62
2019-03-20T09:49:09.107Z,1.77
2019-03-20T09:51:39.685Z,1.50
2019-03-20T09:54:10.298Z,1.60
2019-03-20T09:56:41.061Z,1.62
2019-03-20T09:59:11.662Z,1.50
2019-03-20T10:01:42.230Z,1.32
2019-03-20T10:04:13.024Z,1.40
2019-03-20T10:06:43.875Z,1.60
2019-03-20T10:09:15.815Z,1.50
2019-03-20T10:11:46.376Z,1.47
2019-03-20T10:14:17.127Z,1.40
2019-03-20T10:16:47.851Z,1.70
2019-03-20T10:19:18.382Z,1.50
2019-03-20T10:21:48.905Z,1.40
2019-03-20T10:24:19.305Z,1.50
2019-03-20T10:26:49.973Z,1.40
2019-03-20T10:29:20.601Z,1.40
2019-03-20T10:31:51.417Z,1.30
2019-03-20T10:34:22.087Z,1.70
2019-03-20T10:36:52.906Z,1.45
2019-03-20T10:39:23.672Z,1.55
2019-03-20T10:41:54.243Z,1.27
2019-03-20T10:44:24.802Z,1.30
2019-03-20T10:46:55.645Z,1.55
2019-03-20T10:49:26.066Z,1.50
2019-03-20T10:51:56.570Z,1.27
2019-03-20T10:54:27.349Z,1.40
2019-03-20T10:56:57.875Z,1.30
2019-03-20T10:59:28.383Z,1.20
2019-03-20T11:02:00.895Z,1.40
2019-03-20T11:04:32.038Z,1.47
2019-03-20T11:07:02.599Z,1.45
2019-03-20T11:09:33.265Z,1.40
2019-03-20T11:12:03.928Z,1.60
2019-03-20T11:14:34.800Z,1.40
2019-03-20T11:17:05.401Z,1.17
2019-03-20T11:19:35.907Z,1.30
2019-03-20T11:22:17.969Z,1.42
2019-03-20T11:24:38.807Z,1.30
2019-03-20T11:27:09.328Z,1.30
2019-03-20T11:29:40.071Z,1.40
2019-03-20T11:32:10.516Z,1.52
2019-03-20T11:34:41.127Z,1.30
2019-03-20T11:37:11.858Z,1.30
2019-03-20T11:39:42.508Z,1.37
2019-03-20T11:42:13.247Z,1.15
2019-03-20T11:44:44.018Z,1.40
2019-03-20T11:47:14.718Z,1.27
2019-03-20T11:49:45.481Z,1.12
2019-03-20T11:52:15.998Z,1.07
2019-03-20T11:54:46.783Z,1.20
2019-03-20T11:57:17.243Z,1.30
2019-03-20T11:59:47.974Z,1.55
2019-03-20T12:02:27.763Z,1.65
2019-03-20T12:04:50.866Z,1.35
2019-03-20T12:07:21.506Z,1.40
2019-03-20T12:09:52.094Z,1.40
2019-03-20T12:12:22.667Z,1.40
2019-03-20T12:14:53.065Z,1.35
2019-03-20T12:17:23.610Z,1.42
2019-03-20T12:19:54.052Z,1.80
2019-03-20T12:22:24.431Z,1.60
2019-03-20T12:24:54.899Z,1.60
2019-03-20T12:27:25.662Z,1.70
2019-03-20T12:29:56.432Z,1.57
2019-03-20T12:32:27.140Z,1.30
2019-03-20T12:34:57.779Z,1.37
2019-03-20T12:37:28.334Z,1.27
2019-03-20T12:39:59.124Z,1.40
2019-03-20T12:42:29.538Z,94.87
2019-03-20T12:45:00.001Z,102.38
2019-03-20T12:47:30.829Z,94.17
2019-03-20T12:50:01.517Z,85.75
2019-03-20T12:52:32.262Z,80.25
2019-03-20T12:55:03.040Z,78.55
2019-03-20T12:57:33.656Z,73.60
2019-03-20T13:00:05.124Z,68.90
2019-03-20T13:02:35.697Z,62.58
2019-03-20T13:05:07.238Z,52.83
2019-03-20T13:07:37.837Z,51.85
2019-03-20T13:10:10.149Z,49.90
2019-03-20T13:12:40.739Z,46.25
2019-03-20T13:15:14.719Z,37.83
2019-03-20T13:17:45.210Z,36.88
2019-03-20T13:20:15.787Z,34.27
2019-03-20T13:22:48.496Z,32.08
2019-03-20T13:25:19.187Z,30.17
2019-03-20T13:27:49.732Z,29.18
2019-03-20T13:30:24.566Z,27.37
2019-03-20T13:32:55.114Z,26.80
2019-03-20T13:35:25.798Z,26.10
2019-03-20T13:37:56.322Z,27.07
2019-03-20T13:40:27.119Z,24.67
2019-03-20T13:42:57.714Z,19.90
2019-03-20T13:45:28.270Z,17.32
2019-03-20T13:47:58.838Z,14.45
2019-03-20T13:50:29.542Z,12.33
2019-03-20T13:53:00.207Z,10.55
2019-03-20T13:55:30.791Z,9.35
2019-03-20T13:58:01.472Z,8.05
2019-03-20T14:00:32.140Z,7.50
2019-03-20T14:03:02.691Z,6.97
2019-03-20T14:05:33.508Z,6.72
2019-03-20T14:08:04.112Z,6.00
2019-03-20T14:10:49.445Z,6.03
2019-03-20T14:13:06.819Z,5.75
2019-03-20T14:15:37.552Z,5.70
2019-03-20T14:18:08.411Z,6.00
2019-03-20T14:20:38.788Z,5.53
2019-03-20T14:23:10.507Z,5.33
2019-03-20T14:25:41.094Z,5.40
2019-03-20T14:28:11.681Z,5.35
2019-03-20T14:30:42.260Z,5.05
2019-03-20T14:33:13.066Z,5.67
2019-03-20T14:35:43.860Z,5.37
2019-03-20T14:38:16.456Z,5.05
2019-03-20T14:40:47.746Z,4.72
2019-03-20T14:43:18.916Z,5.20
2019-03-20T14:45:49.706Z,4.70
2019-03-20T14:48:21.127Z,4.62
2019-03-20T14:50:52.394Z,4.78
2019-03-20T14:53:23.032Z,4.85
2019-03-20T14:55:54.247Z,4.55
2019-03-20T14:58:25.068Z,4.92
2019-03-20T15:00:55.708Z,4.90
2019-03-20T15:03:26.376Z,4.53
2019-03-20T15:05:57.088Z,4.60
2019-03-20T15:08:27.873Z,4.78
2019-03-20T15:10:58.500Z,4.75
2019-03-20T15:13:29.054Z,4.50
2019-03-20T15:16:08.072Z,4.17
2019-03-20T15:18:38.822Z,4.05
2019-03-20T15:21:09.472Z,4.10
2019-03-20T15:23:40.308Z,5.10
2019-03-20T15:26:10.869Z,4.42
2019-03-20T15:28:41.566Z,4.90
2019-03-20T15:31:12.251Z,4.28
2019-03-20T15:33:42.935Z,4.60
2019-03-20T15:36:13.581Z,4.33
2019-03-20T15:38:44.346Z,4.10
2019-03-20T15:41:14.791Z,4.42
2019-03-20T15:43:45.457Z,4.50
2019-03-20T15:46:16.025Z,4.37
2019-03-20T15:48:46.503Z,4.40
2019-03-20T15:51:17.031Z,4.53
2019-03-20T15:53:47.919Z,4.87
2019-03-20T15:56:18.515Z,4.45
2019-03-20T15:58:49.057Z,4.03
2019-03-20T16:01:19.586Z,4.62
2019-03-20T16:03:50.534Z,4.30
2019-03-20T16:06:21.140Z,4.25
2019-03-20T16:08:51.507Z,3.83
2019-03-20T16:11:22.446Z,3.87
2019-03-20T16:13:53.936Z,3.72
2019-03-20T16:16:24.623Z,3.87
2019-03-20T16:18:55.435Z,3.83
2019-03-20T16:21:26.130Z,4.12
2019-03-20T16:23:56.895Z,3.72
2019-03-20T16:26:27.693Z,4.45
2019-03-20T16:28:58.274Z,4.03
2019-03-20T16:31:28.933Z,3.85
2019-03-20T16:34:00.209Z,3.83
2019-03-20T16:36:30.997Z,3.80
2019-03-20T16:39:05.263Z,4.00
2019-03-20T16:41:36.149Z,4.22
2019-03-20T16:44:07.430Z,4.20
2019-03-20T16:46:38.400Z,3.90
2019-03-20T16:49:09.343Z,3.52
2019-03-20T16:51:40.274Z,4.00
2019-03-20T16:54:10.983Z,3.80
2019-03-20T16:56:41.583Z,4.00
2019-03-20T16:59:12.365Z,3.75
2019-03-20T17:01:43.188Z,3.10
2019-03-20T17:04:13.975Z,3.52
2019-03-20T17:06:44.774Z,3.27
2019-03-20T17:09:15.516Z,3.50
2019-03-20T17:11:46.648Z,3.42
2019-03-20T17:14:17.882Z,3.35
2019-03-20T17:16:48.627Z,3.42
2019-03-20T17:19:19.240Z,3.40
2019-03-20T17:21:50.105Z,3.45
2019-03-20T17:24:20.971Z,3.47
2019-03-20T17:26:51.652Z,2.83
2019-03-20T17:29:22.519Z,3.15
2019-03-20T17:31:53.515Z,2.92
2019-03-20T17:34:24.243Z,3.10
2019-03-20T17:36:54.811Z,3.12
2019-03-20T17:39:25.689Z,3.30
2019-03-20T17:41:56.319Z,2.87
2019-03-20T17:44:27.028Z,2.70
2019-03-20T17:46:57.441Z,3.00
2019-03-20T17:49:28.385Z,3.37
2019-03-20T17:51:59.133Z,3.30
2019-03-20T17:54:29.639Z,3.00
2019-03-20T17:57:00.224Z,3.08
2019-03-20T17:59:30.878Z,3.12
2019-03-20T18:02:01.538Z,3.30
2019-03-20T18:04:32.192Z,3.10
2019-03-20T18:07:02.851Z,3.00
2019-03-20T18:09:33.984Z,3.02
2019-03-20T18:12:04.864Z,2.65
2019-03-20T18:14:35.485Z,2.67
2019-03-20T18:17:05.863Z,2.80
2019-03-20T18:19:36.447Z,3.12
2019-03-20T18:22:06.848Z,2.67
2019-03-20T18:24:37.324Z,3.00
2019-03-20T18:27:07.818Z,2.95
2019-03-20T18:29:38.551Z,2.95
2019-03-20T18:32:09.323Z,3.62
2019-03-20T18:34:39.902Z,2.87
2019-03-20T18:37:10.496Z,3.00
2019-03-20T18:39:41.152Z,2.92
2019-03-20T18:42:11.871Z,2.70
2019-03-20T18:44:42.657Z,2.92
2019-03-20T18:47:13.252Z,3.12
2019-03-20T18:49:43.936Z,2.92
2019-03-20T18:52:14.678Z,2.95
2019-03-20T18:54:45.389Z,2.92
2019-03-20T18:57:15.956Z,3.15
2019-03-20T18:59:47.563Z,2.60
2019-03-20T19:02:18.037Z,3.25
2019-03-20T19:04:48.464Z,3.12
2019-03-20T19:07:18.993Z,3.10
2019-03-20T19:09:49.493Z,3.40
2019-03-20T19:12:20.242Z,3.95
2019-03-20T19:14:50.751Z,3.92
2019-03-20T19:17:21.213Z,3.95
2019-03-20T19:19:51.822Z,3.52
2019-03-20T19:22:22.562Z,3.52
2019-03-20T19:24:53.682Z,3.50
2019-03-20T19:27:24.208Z,3.40
2019-03-20T19:29:54.982Z,3.75
2019-03-20T19:32:25.732Z,3.90
2019-03-20T19:34:56.296Z,4.47
2019-03-20T19:37:27.395Z,3.60
2019-03-20T19:39:57.965Z,3.85
2019-03-20T19:42:28.569Z,3.70
2019-03-20T19:44:59.038Z,4.08
2019-03-20T19:47:29.500Z,3.58
2019-03-20T19:50:00.076Z,3.30
2019-03-20T19:52:30.980Z,3.25
2019-03-20T19:55:01.668Z,3.40
2019-03-20T19:57:32.339Z,3.27
2019-03-20T20:00:03.252Z,3.02
2019-03-20T20:02:33.916Z,3.25
2019-03-20T20:05:14.995Z,3.47
2019-03-20T20:07:37.977Z,3.00
2019-03-20T20:10:10.012Z,3.30
2019-03-20T20:12:40.859Z,3.35
2019-03-20T20:15:15.436Z,3.25
2019-03-20T20:17:47.064Z,3.35
2019-03-20T20:20:19.460Z,3.40
2019-03-20T20:22:51.409Z,3.40
2019-03-20T20:25:22.927Z,3.12
2019-03-20T20:27:54.343Z,2.75
2019-03-20T20:30:26.071Z,3.27
2019-03-20T20:32:58.280Z,3.42
2019-03-20T20:35:30.155Z,3.40
2019-03-20T20:38:00.884Z,2.62
2019-03-20T20:40:31.635Z,3.25
2019-03-20T20:43:01.988Z,2.90
2019-03-20T20:45:32.580Z,2.90
2019-03-20T20:48:03.094Z,2.92
2019-03-20T20:50:33.498Z,3.10
2019-03-20T20:53:03.842Z,2.90
2019-03-20T20:55:34.595Z,3.08
2019-03-20T20:58:05.350Z,2.65
2019-03-20T21:00:36.097Z,2.72
2019-03-20T21:03:06.554Z,2.92
2019-03-20T21:05:37.106Z,2.60
2019-03-20T21:08:07.937Z,2.50
2019-03-20T21:10:38.611Z,3.00
2019-03-20T21:13:09.214Z,2.65
2019-03-20T21:15:46.753Z,2.52
2019-03-20T21:19:17.443Z,2.98
2019-03-20T21:22:55.276Z,3.25
2019-03-20T21:25:26.699Z,2.90
2019-03-20T21:29:09.934Z,2.92
2019-03-20T21:31:57.424Z,3.00
2019-03-20T21:35:16.812Z,2.90
2019-03-20T21:38:13.821Z,3.25
2019-03-20T21:41:53.871Z,3.02
2019-03-20T21:45:30.375Z,3.17
2019-03-20T21:48:01.581Z,3.30
2019-03-20T21:51:15.861Z,2.70
2019-03-20T21:55:08.143Z,3.42
2019-03-20T21:58:13.049Z,3.05
2019-03-20T22:01:35.896Z,2.72
2019-03-20T22:04:07.426Z,2.65
2019-03-20T22:07:09.444Z,2.62
2019-03-20T22:10:52.522Z,2.90
2019-03-20T22:13:41.358Z,2.42
2019-03-20T22:17:05.823Z,2.55
2019-03-20T22:20:27.914Z,2.60
2019-03-20T22:24:02.106Z,2.58
2019-03-20T22:27:12.020Z,2.30
2019-03-20T22:29:43.375Z,2.40
2019-03-20T22:33:21.792Z,2.20
2019-03-20T22:36:01.669Z,2.58
2019-03-20T22:39:40.291Z,2.70
2019-03-20T22:42:36.734Z,2.10
2019-03-20T22:46:05.144Z,2.55
2019-03-20T22:49:30.378Z,2.83
2019-03-20T22:52:46.096Z,3.75
2019-03-20T22:56:07.248Z,5.05
2019-03-20T22:58:48.296Z,3.80
2019-03-20T23:01:57.098Z,3.52
2019-03-20T23:04:34.095Z,5.67
2019-03-20T23:07:05.585Z,3.37
2019-03-20T23:09:36.889Z,3.05
2019-03-20T23:12:12.624Z,3.52
2019-03-20T23:14:44.037Z,2.87
2019-03-20T23:17:15.248Z,2.98
2019-03-20T23:19:47.504Z,3.50
2019-03-20T23:22:18.869Z,2.98
2019-03-20T23:24:50.379Z,2.77
2019-03-20T23:27:29.016Z,3.37
2019-03-20T23:30:01.017Z,4.35
2019-03-20T23:32:32.749Z,4.95
2019-03-20T23:35:04.164Z,3.83
2019-03-20T23:37:35.630Z,3.62
2019-03-20T23:40:09.972Z,4.25
2019-03-20T23:42:41.472Z,3.65
2019-03-20T23:45:14.896Z,3.37
2019-03-20T23:48:31.705Z,3.45
2019-03-20T23:51:08.797Z,3.12
2019-03-20T23:53:44.151Z,3.67
2019-03-20T23:56:15.645Z,3.67
2019-03-20T23:58:46.939Z,3.10
